Terminal Aerodrome Forecast
Issued by NWS Wilmington, NC

Home | Current Version | Previous Version | Text Only | Print | Product List | Glossary On
Versions: 1 2 3 4 5 6 7 8 9 10 11 12 13 14 15 16 17 18 19 20
000
FTUS42 KILM 020000 CCA
TAFMYR
TAF COR
KMYR 020002Z 0200/0224 19008KT P6SM SCT020 SCT050 BKN120
      TEMPO 0200/0204 BKN015
     FM020400 19004KT 6SM -SHRA VCTS BKN020 BKN040CB
      TEMPO 0205/0209 4SM SHRA SCT007 BKN015
     FM020900 VRB03KT 4SM BR VCSH SCT006 OVC080
      TEMPO 0209/0213 BKN006
     FM021300 10004KT P6SM VCSH SCT020 SCT080 BKN120
     FM021600 15008KT P6SM VCTS BKN020CB OVC090
      AMD LTD TO CLD VIS AND WIND 0204/0211=

USA.gov is the U.S. government's official web portal to all federal, state and local government web resources and services.